createdAt,value
2022-11-21T00:03:39.240Z,-1.01
2022-11-21T00:08:43.063Z,-0.97
2022-11-21T00:13:46.477Z,-0.94
2022-11-21T00:18:49.892Z,-0.98
2022-11-21T00:23:53.508Z,-0.99
2022-11-21T00:28:56.818Z,-1.05
2022-11-21T00:34:02.796Z,-1.11
2022-11-21T00:39:06.204Z,-1.22
2022-11-21T00:44:09.720Z,-1.37
2022-11-21T00:49:13.133Z,-1.52
2022-11-21T00:54:16.653Z,-1.61
2022-11-21T00:59:20.062Z,-1.72
2022-11-21T01:04:23.582Z,-1.87
2022-11-21T01:09:28.869Z,-2.05
2022-11-21T01:14:32.349Z,-2.24
2022-11-21T01:19:35.766Z,-2.40
2022-11-21T01:24:39.280Z,-2.55
2022-11-21T01:29:42.896Z,-2.66
2022-11-21T01:34:46.207Z,-2.77
2022-11-21T01:39:49.722Z,-2.84
2022-11-21T01:44:54.780Z,-2.88
2022-11-21T01:49:58.493Z,-2.92
2022-11-21T01:55:06.618Z,-2.95
2022-11-21T02:00:17.011Z,-2.99
2022-11-21T02:05:24.607Z,-3.05
2022-11-21T02:10:28.634Z,-3.12
2022-11-21T02:15:32.562Z,-3.22
2022-11-21T02:20:38.122Z,-3.35
2022-11-21T02:25:43.287Z,-3.44
2022-11-21T02:30:47.102Z,-3.55
2022-11-21T02:36:01.984Z,-3.51
2022-11-21T02:41:15.225Z,-3.38
2022-11-21T02:46:18.536Z,-3.26
2022-11-21T02:51:22.050Z,-3.18
2022-11-21T02:56:25.566Z,-3.15
2022-11-21T03:01:29.524Z,-3.16
2022-11-21T03:06:33.008Z,-3.28
2022-11-21T03:11:36.522Z,-3.37
2022-11-21T03:16:40.201Z,-3.45
2022-11-21T03:21:43.553Z,-3.53
2022-11-21T03:26:47.069Z,-3.55
2022-11-21T03:31:50.480Z,-3.58
2022-11-21T03:36:54.100Z,-3.60
2022-11-21T03:41:57.718Z,-3.62
2022-11-21T03:47:01.028Z,-3.59
2022-11-21T03:52:04.780Z,-3.53
2022-11-21T03:57:08.163Z,-3.48
2022-11-21T04:02:11.577Z,-3.49
2022-11-21T04:07:15.484Z,-3.52
2022-11-21T04:12:18.914Z,-3.55
2022-11-21T04:17:22.429Z,-3.61
2022-11-21T04:22:25.842Z,-3.64
2022-11-21T04:27:29.259Z,-3.71
2022-11-21T04:32:32.771Z,-3.79
2022-11-21T04:37:39.256Z,-3.83
2022-11-21T04:42:43.630Z,-3.83
2022-11-21T04:47:47.107Z,-3.83
2022-11-21T04:52:55.995Z,-3.84
2022-11-21T04:58:00.630Z,-3.87
2022-11-21T05:03:05.644Z,-3.82
2022-11-21T05:08:08.955Z,-3.71
2022-11-21T05:13:21.328Z,-3.59
2022-11-21T05:18:25.505Z,-3.48
2022-11-21T05:23:28.919Z,-3.36
2022-11-21T05:28:32.228Z,-3.25
2022-11-21T05:33:35.744Z,-3.12
2022-11-21T05:38:39.157Z,-3.00
2022-11-21T05:43:49.227Z,-2.93
2022-11-21T05:48:54.588Z,-2.83
2022-11-21T05:53:58.102Z,-2.73
2022-11-21T05:59:01.617Z,-2.66
2022-11-21T06:04:05.135Z,-2.59
2022-11-21T06:09:08.448Z,-2.51
2022-11-21T06:14:11.757Z,-2.51
2022-11-21T06:19:15.169Z,-2.46
2022-11-21T06:24:26.978Z,-2.48
2022-11-21T06:29:30.596Z,-2.44
2022-11-21T06:34:34.112Z,-2.45
2022-11-21T06:39:37.421Z,-2.43
2022-11-21T06:44:40.834Z,-2.38
2022-11-21T06:49:44.152Z,-2.32
2022-11-21T06:54:47.764Z,-2.18
2022-11-21T06:59:51.074Z,-2.05
2022-11-21T07:04:54.490Z,-1.91
2022-11-21T07:09:57.901Z,-1.77
2022-11-21T07:15:01.416Z,-1.68
2022-11-21T07:20:05.445Z,-1.51
2022-11-21T07:25:09.226Z,-1.34
2022-11-21T07:30:13.501Z,-1.19
2022-11-21T07:35:16.814Z,-1.07
2022-11-21T07:40:20.735Z,-0.98
2022-11-21T07:45:24.048Z,-0.92
2022-11-21T07:50:28.485Z,-0.91
2022-11-21T07:55:36.362Z,-0.91
2022-11-21T08:00:43.301Z,-0.86
2022-11-21T08:05:46.712Z,-0.78
2022-11-21T08:10:51.765Z,-0.63
2022-11-21T08:15:55.176Z,-0.43
2022-11-21T08:21:01.761Z,-0.15
2022-11-21T08:26:05.074Z,0.07
2022-11-21T08:31:08.588Z,0.23
2022-11-21T08:36:12.105Z,0.32
2022-11-21T08:41:34.362Z,0.48
2022-11-21T08:46:37.876Z,0.65
2022-11-21T08:51:41.700Z,0.89
2022-11-21T08:56:45.725Z,1.04
2022-11-21T09:01:49.358Z,1.13
2022-11-21T09:06:53.267Z,1.30
2022-11-21T09:11:56.581Z,1.40
2022-11-21T09:17:18.629Z,1.57
2022-11-21T09:22:22.042Z,1.67
2022-11-21T09:27:25.454Z,1.79
2022-11-21T09:32:28.867Z,1.98
2022-11-21T09:37:38.153Z,2.13
2022-11-21T09:42:44.298Z,2.30
2022-11-21T09:47:52.918Z,2.35
2022-11-21T09:52:59.827Z,2.41
2022-11-21T09:58:05.472Z,2.58
2022-11-21T10:03:15.599Z,2.76
2022-11-21T10:08:48.111Z,2.84
2022-11-21T10:14:15.636Z,2.94
2022-11-21T10:19:31.234Z,2.98
2022-11-21T10:24:59.432Z,3.03
2022-11-21T10:30:06.118Z,3.09
2022-11-21T10:35:22.984Z,3.10
2022-11-21T10:40:59.536Z,3.18
2022-11-21T10:46:02.950Z,3.14
2022-11-21T10:51:37.593Z,3.08
2022-11-21T10:56:40.852Z,3.02
2022-11-21T11:01:56.143Z,2.84
2022-11-21T11:07:24.454Z,2.71
2022-11-21T11:12:49.000Z,2.63
2022-11-21T11:17:59.161Z,2.66
2022-11-21T11:23:20.309Z,2.75
2022-11-21T11:28:25.558Z,2.79
2022-11-21T11:33:50.578Z,2.83
2022-11-21T11:38:59.316Z,2.78
2022-11-21T11:44:33.756Z,2.76
2022-11-21T11:49:59.901Z,2.73
2022-11-21T11:55:14.987Z,2.73
2022-11-21T12:00:46.561Z,2.65
2022-11-21T12:06:09.129Z,2.64
2022-11-21T12:11:47.557Z,2.75
2022-11-21T12:16:50.971Z,2.66
2022-11-21T12:21:54.386Z,2.52
2022-11-21T12:27:21.861Z,2.48
2022-11-21T12:32:34.489Z,2.46
2022-11-21T12:38:22.858Z,2.40
2022-11-21T12:44:27.505Z,2.35
2022-11-21T12:50:41.166Z,2.21
2022-11-21T12:55:44.988Z,2.14
2022-11-21T13:01:19.705Z,2.15
2022-11-21T13:06:33.082Z,2.24
2022-11-21T13:11:58.924Z,2.22
2022-11-21T13:17:36.844Z,2.04
2022-11-21T13:22:42.612Z,1.90
2022-11-21T13:27:46.027Z,1.78
2022-11-21T13:32:56.022Z,1.65
2022-11-21T13:38:04.733Z,1.50
2022-11-21T13:43:36.466Z,1.30
2022-11-21T13:49:07.678Z,1.11
2022-11-21T13:54:55.529Z,1.02
2022-11-21T14:00:38.365Z,0.94
2022-11-21T14:05:58.369Z,0.83
2022-11-21T14:11:30.358Z,0.82
2022-11-21T14:16:51.172Z,0.76
2022-11-21T14:21:55.815Z,0.73
2022-11-21T14:26:59.333Z,0.72
2022-11-21T14:32:02.956Z,0.71
2022-11-21T14:37:08.000Z,0.72
2022-11-21T14:42:15.604Z,0.69
2022-11-21T14:47:26.158Z,0.59
2022-11-21T14:52:33.191Z,0.58
2022-11-21T14:57:42.846Z,0.59
2022-11-21T15:02:47.091Z,0.53
2022-11-21T15:07:50.862Z,0.47
2022-11-21T15:12:59.128Z,0.46
2022-11-21T15:23:31.876Z,0.43
2022-11-21T15:28:35.174Z,0.40
2022-11-21T15:39:24.808Z,0.30
2022-11-21T15:44:28.446Z,0.27
2022-11-21T15:49:33.452Z,0.27
2022-11-21T15:54:37.204Z,0.25
2022-11-21T15:57:15.607Z,0.38
2022-11-21T15:59:40.604Z,0.21
2022-11-21T16:04:44.223Z,0.16
2022-11-21T16:09:47.994Z,0.22
2022-11-21T16:14:51.561Z,0.22
2022-11-21T16:19:54.870Z,0.24
2022-11-21T16:24:58.283Z,0.27
2022-11-21T16:30:01.595Z,0.28
2022-11-21T16:35:06.033Z,0.27
2022-11-21T16:40:10.676Z,0.27
2022-11-21T16:45:14.295Z,0.39
2022-11-21T16:50:18.115Z,0.54
2022-11-21T16:55:21.427Z,0.62
2022-11-21T17:00:25.965Z,0.68
2022-11-21T17:05:29.173Z,0.63
2022-11-21T17:10:34.098Z,0.51
2022-11-21T17:15:37.638Z,0.49
2022-11-21T17:20:40.949Z,0.48
2022-11-21T17:25:44.360Z,0.50
2022-11-21T17:30:47.779Z,0.61
2022-11-21T17:35:51.906Z,0.69
2022-11-21T17:41:02.590Z,0.74
2022-11-21T17:46:10.252Z,0.76
2022-11-21T17:51:17.257Z,0.76
2022-11-21T17:56:25.534Z,0.78
2022-11-21T18:01:29.898Z,0.85
2022-11-21T18:06:34.500Z,0.85
2022-11-21T18:11:40.327Z,0.89
2022-11-21T18:16:50.716Z,0.92
2022-11-21T18:21:56.414Z,0.93
2022-11-21T18:26:59.827Z,0.93
2022-11-21T18:32:03.240Z,0.98
2022-11-21T18:37:06.757Z,1.00
2022-11-21T18:42:10.168Z,1.02
2022-11-21T18:47:20.372Z,1.01
2022-11-21T18:52:25.193Z,0.93
2022-11-21T18:57:28.601Z,0.92
2022-11-21T19:02:32.224Z,0.94
2022-11-21T19:07:35.695Z,0.93
2022-11-21T19:12:39.878Z,0.99
2022-11-21T19:17:43.380Z,1.08
2022-11-21T19:22:46.691Z,1.12
2022-11-21T19:27:50.103Z,1.18
2022-11-21T19:32:54.320Z,1.26
2022-11-21T19:37:57.543Z,1.33
2022-11-21T19:43:00.957Z,1.37
2022-11-21T19:48:04.677Z,1.37
2022-11-21T19:53:08.089Z,1.36
2022-11-21T19:58:11.506Z,1.35
2022-11-21T20:03:14.814Z,1.32
2022-11-21T20:08:18.456Z,1.35
2022-11-21T20:13:21.950Z,1.40
2022-11-21T20:18:25.463Z,1.38
2022-11-21T20:23:29.084Z,1.41
2022-11-21T20:28:36.899Z,1.42
2022-11-21T20:33:42.656Z,1.42
2022-11-21T20:38:56.626Z,1.46
2022-11-21T20:44:53.314Z,1.47
2022-11-21T20:49:25.780Z,1.42
2022-11-21T20:54:29.276Z,1.45
2022-11-21T20:59:52.915Z,1.53
2022-11-21T21:04:56.396Z,1.54
2022-11-21T21:10:00.129Z,1.53
2022-11-21T21:15:03.736Z,1.49
2022-11-21T21:20:08.450Z,1.45
2022-11-21T21:25:11.789Z,1.44
2022-11-21T21:30:16.019Z,1.43
2022-11-21T21:35:19.743Z,1.37
2022-11-21T21:40:23.154Z,1.37
2022-11-21T21:45:26.672Z,1.37
2022-11-21T21:50:30.289Z,1.37
2022-11-21T21:55:33.702Z,1.37
2022-11-21T22:00:37.321Z,1.41
2022-11-21T22:05:40.631Z,1.41
2022-11-21T22:10:44.147Z,1.45
2022-11-21T22:15:47.866Z,1.54
2022-11-21T22:20:51.793Z,1.59
2022-11-21T22:25:58.689Z,1.64
2022-11-21T22:31:02.100Z,1.71
2022-11-21T22:36:16.979Z,1.75
2022-11-21T22:41:25.869Z,1.80
2022-11-21T22:46:30.532Z,1.85
2022-11-21T22:51:35.003Z,1.89
2022-11-21T22:56:38.416Z,1.86
2022-11-21T23:01:42.097Z,1.85
2022-11-21T23:06:45.762Z,1.86
2022-11-21T23:11:49.273Z,1.93
2022-11-21T23:16:52.793Z,1.90
2022-11-21T23:21:56.311Z,1.84
2022-11-21T23:27:00.130Z,1.80
2022-11-21T23:32:03.852Z,1.75
2022-11-21T23:37:07.365Z,1.73
2022-11-21T23:42:10.886Z,1.69
2022-11-21T23:47:14.396Z,1.65
2022-11-21T23:52:18.019Z,1.67
2022-11-21T23:57:21.531Z,1.68
